Last Chance, Colorado
Current Conditions -  °F | °C
As of 12:33 AM on Wednesday 26 Nov 2014 (Local Time) from KAKO Reporting Station
Light Snow Light Snow  
Wind Chill: 18°   Ceiling: 4100
Heat Index: 30°   Visibility: 3mi
Dew Point: 28°   Wind: 17mph
Humidity: 92%   Direction: 310°NW
Pressure: 30.1"   Gusts: 22mph
Location:  39.8912°N, 103.605°W
Report Text: KAKO 260733Z AUTO 31015G19KT 3SM -SN BR FEW008 SCT015 OVC041 M01/M02 A3010 RMK AO2 P0001 T10111022
Loading
Personal Weather Stations






























Interactive Weather Map New forecast layout! Learn more

10-Day Weather Forecast

Advertisements
Track Severe Weather on mobile